sensor_id;sensor_type;location;lat;lon;timestamp;temperature;humidity
18658;DHT22;9458;50.942;5.074;2023-07-16T00:00:25;19.90;99.90
18658;DHT22;9458;50.942;5.074;2023-07-16T00:02:54;19.90;99.90
18658;DHT22;9458;50.942;5.074;2023-07-16T00:05:21;19.80;99.90
18658;DHT22;9458;50.942;5.074;2023-07-16T00:07:50;19.80;99.90
18658;DHT22;9458;50.942;5.074;2023-07-16T00:10:19;19.80;99.90
18658;DHT22;9458;50.942;5.074;2023-07-16T00:12:49;19.80;99.90
18658;DHT22;9458;50.942;5.074;2023-07-16T00:15:16;19.80;99.90
18658;DHT22;9458;50.942;5.074;2023-07-16T00:17:47;19.80;99.90
18658;DHT22;9458;50.942;5.074;2023-07-16T00:20:20;19.80;99.90
18658;DHT22;9458;50.942;5.074;2023-07-16T00:22:50;19.70;99.90
18658;DHT22;9458;50.942;5.074;2023-07-16T00:25:18;19.70;99.90
18658;DHT22;9458;50.942;5.074;2023-07-16T00:27:45;19.60;99.90
18658;DHT22;9458;50.942;5.074;2023-07-16T00:30:13;19.70;99.90
18658;DHT22;9458;50.942;5.074;2023-07-16T00:32:40;19.70;99.90
18658;DHT22;9458;50.942;5.074;2023-07-16T00:35:08;19.60;99.90
18658;DHT22;9458;50.942;5.074;2023-07-16T00:37:36;19.60;99.90
18658;DHT22;9458;50.942;5.074;2023-07-16T00:40:08;19.50;99.90
18658;DHT22;9458;50.942;5.074;2023-07-16T00:42:36;19.50;99.90
18658;DHT22;9458;50.942;5.074;2023-07-16T00:45:04;19.50;99.90
18658;DHT22;9458;50.942;5.074;2023-07-16T00:47:35;19.40;99.90
18658;DHT22;9458;50.942;5.074;2023-07-16T00:50:02;19.40;99.90
18658;DHT22;9458;50.942;5.074;2023-07-16T00:52:30;19.40;99.90
18658;DHT22;9458;50.942;5.074;2023-07-16T00:54:58;19.30;99.90
18658;DHT22;9458;50.942;5.074;2023-07-16T00:57:27;19.30;99.90
18658;DHT22;9458;50.942;5.074;2023-07-16T00:59:54;19.30;99.90
18658;DHT22;9458;50.942;5.074;2023-07-16T01:02:22;19.20;99.90
18658;DHT22;9458;50.942;5.074;2023-07-16T01:04:49;19.20;99.90
18658;DHT22;9458;50.942;5.074;2023-07-16T01:07:18;19.20;99.90
18658;DHT22;9458;50.942;5.074;2023-07-16T01:09:49;19.20;99.90
18658;DHT22;9458;50.942;5.074;2023-07-16T01:12:18;19.00;99.90
18658;DHT22;9458;50.942;5.074;2023-07-16T01:14:50;19.00;99.90
18658;DHT22;9458;50.942;5.074;2023-07-16T01:17:19;18.90;99.90
18658;DHT22;9458;50.942;5.074;2023-07-16T01:19:46;18.90;99.90
18658;DHT22;9458;50.942;5.074;2023-07-16T01:25:18;18.80;99.90
18658;DHT22;9458;50.942;5.074;2023-07-16T01:30:36;18.60;99.90
18658;DHT22;9458;50.942;5.074;2023-07-16T01:33:04;18.60;99.90
18658;DHT22;9458;50.942;5.074;2023-07-16T01:35:32;18.50;99.90
18658;DHT22;9458;50.942;5.074;2023-07-16T01:38:00;18.50;99.90
18658;DHT22;9458;50.942;5.074;2023-07-16T01:40:28;18.50;99.90
18658;DHT22;9458;50.942;5.074;2023-07-16T01:42:57;18.50;99.90
18658;DHT22;9458;50.942;5.074;2023-07-16T01:45:25;18.50;99.90
18658;DHT22;9458;50.942;5.074;2023-07-16T01:47:55;18.50;99.90
18658;DHT22;9458;50.942;5.074;2023-07-16T01:50:29;18.40;99.90
18658;DHT22;9458;50.942;5.074;2023-07-16T01:53:02;18.40;99.90
18658;DHT22;9458;50.942;5.074;2023-07-16T01:55:30;18.40;99.90
18658;DHT22;9458;50.942;5.074;2023-07-16T01:57:57;18.40;99.90
18658;DHT22;9458;50.942;5.074;2023-07-16T02:00:24;18.40;99.90
18658;DHT22;9458;50.942;5.074;2023-07-16T02:02:58;18.30;99.90
18658;DHT22;9458;50.942;5.074;2023-07-16T02:05:25;18.20;99.90
18658;DHT22;9458;50.942;5.074;2023-07-16T02:08:03;18.20;99.90
18658;DHT22;9458;50.942;5.074;2023-07-16T02:10:32;18.20;99.90
18658;DHT22;9458;50.942;5.074;2023-07-16T02:12:59;18.20;99.90
18658;DHT22;9458;50.942;5.074;2023-07-16T02:15:32;18.10;99.90
18658;DHT22;9458;50.942;5.074;2023-07-16T02:18:00;18.10;99.90
18658;DHT22;9458;50.942;5.074;2023-07-16T02:20:27;18.10;99.90
18658;DHT22;9458;50.942;5.074;2023-07-16T02:22:54;18.00;99.90
18658;DHT22;9458;50.942;5.074;2023-07-16T02:25:21;18.00;99.90
18658;DHT22;9458;50.942;5.074;2023-07-16T02:27:49;18.00;99.90
18658;DHT22;9458;50.942;5.074;2023-07-16T02:30:17;18.10;99.90
18658;DHT22;9458;50.942;5.074;2023-07-16T02:32:45;18.00;99.90
18658;DHT22;9458;50.942;5.074;2023-07-16T02:35:14;18.00;99.90
18658;DHT22;9458;50.942;5.074;2023-07-16T02:37:43;18.00;99.90
18658;DHT22;9458;50.942;5.074;2023-07-16T02:40:10;17.90;99.90
18658;DHT22;9458;50.942;5.074;2023-07-16T02:42:42;17.90;99.90
18658;DHT22;9458;50.942;5.074;2023-07-16T02:45:14;17.70;99.90
18658;DHT22;9458;50.942;5.074;2023-07-16T02:47:42;17.60;99.90
18658;DHT22;9458;50.942;5.074;2023-07-16T02:50:10;17.50;99.90
18658;DHT22;9458;50.942;5.074;2023-07-16T02:52:40;17.30;99.90
18658;DHT22;9458;50.942;5.074;2023-07-16T02:55:07;17.20;99.90
18658;DHT22;9458;50.942;5.074;2023-07-16T02:57:34;17.10;99.90
18658;DHT22;9458;50.942;5.074;2023-07-16T03:00:02;17.00;99.90
18658;DHT22;9458;50.942;5.074;2023-07-16T03:02:35;17.10;99.90
18658;DHT22;9458;50.942;5.074;2023-07-16T03:05:05;16.90;99.90
18658;DHT22;9458;50.942;5.074;2023-07-16T03:07:32;17.00;99.90
18658;DHT22;9458;50.942;5.074;2023-07-16T03:10:01;17.10;99.90
18658;DHT22;9458;50.942;5.074;2023-07-16T03:12:28;17.10;99.90
18658;DHT22;9458;50.942;5.074;2023-07-16T03:14:58;17.00;99.90
18658;DHT22;9458;50.942;5.074;2023-07-16T03:17:25;17.10;99.90
18658;DHT22;9458;50.942;5.074;2023-07-16T03:19:52;17.20;99.90
18658;DHT22;9458;50.942;5.074;2023-07-16T03:22:19;17.10;99.90
18658;DHT22;9458;50.942;5.074;2023-07-16T03:24:46;17.10;99.90
18658;DHT22;9458;50.942;5.074;2023-07-16T03:27:15;17.00;99.90
18658;DHT22;9458;50.942;5.074;2023-07-16T03:29:42;17.10;99.90
18658;DHT22;9458;50.942;5.074;2023-07-16T03:32:09;17.00;99.90
18658;DHT22;9458;50.942;5.074;2023-07-16T03:34:36;17.00;99.90
18658;DHT22;9458;50.942;5.074;2023-07-16T03:37:07;17.00;99.90
18658;DHT22;9458;50.942;5.074;2023-07-16T03:39:34;17.10;99.90
18658;DHT22;9458;50.942;5.074;2023-07-16T03:42:03;17.00;99.90
18658;DHT22;9458;50.942;5.074;2023-07-16T03:44:35;17.00;99.90
18658;DHT22;9458;50.942;5.074;2023-07-16T03:47:07;16.90;99.90
18658;DHT22;9458;50.942;5.074;2023-07-16T03:49:41;17.00;99.90
18658;DHT22;9458;50.942;5.074;2023-07-16T03:52:11;17.00;99.90
18658;DHT22;9458;50.942;5.074;2023-07-16T03:54:40;16.90;99.90
18658;DHT22;9458;50.942;5.074;2023-07-16T03:57:08;17.00;99.90
18658;DHT22;9458;50.942;5.074;2023-07-16T03:59:39;17.00;99.90
18658;DHT22;9458;50.942;5.074;2023-07-16T04:02:08;17.10;99.90
18658;DHT22;9458;50.942;5.074;2023-07-16T04:04:39;17.00;99.90
18658;DHT22;9458;50.942;5.074;2023-07-16T04:07:09;17.00;99.90
18658;DHT22;9458;50.942;5.074;2023-07-16T04:09:40;17.20;99.90
18658;DHT22;9458;50.942;5.074;2023-07-16T04:12:07;17.40;99.90
18658;DHT22;9458;50.942;5.074;2023-07-16T04:14:35;17.90;99.90
18658;DHT22;9458;50.942;5.074;2023-07-16T04:17:04;18.20;99.90
18658;DHT22;9458;50.942;5.074;2023-07-16T04:19:32;18.50;99.90
18658;DHT22;9458;50.942;5.074;2023-07-16T04:21:59;18.70;99.90
18658;DHT22;9458;50.942;5.074;2023-07-16T04:24:28;19.10;99.90
18658;DHT22;9458;50.942;5.074;2023-07-16T04:26:55;19.30;99.90
18658;DHT22;9458;50.942;5.074;2023-07-16T04:29:24;19.50;99.90
18658;DHT22;9458;50.942;5.074;2023-07-16T04:31:51;19.50;99.90
18658;DHT22;9458;50.942;5.074;2023-07-16T04:34:20;19.60;99.90
18658;DHT22;9458;50.942;5.074;2023-07-16T04:36:48;20.00;99.90
18658;DHT22;9458;50.942;5.074;2023-07-16T04:39:16;20.50;99.90
18658;DHT22;9458;50.942;5.074;2023-07-16T04:41:49;20.70;99.90
18658;DHT22;9458;50.942;5.074;2023-07-16T04:44:18;20.70;99.90
18658;DHT22;9458;50.942;5.074;2023-07-16T04:46:47;21.00;99.90
18658;DHT22;9458;50.942;5.074;2023-07-16T04:49:14;21.70;99.90
18658;DHT22;9458;50.942;5.074;2023-07-16T04:51:46;22.00;99.90
18658;DHT22;9458;50.942;5.074;2023-07-16T04:54:15;22.20;99.90
18658;DHT22;9458;50.942;5.074;2023-07-16T04:56:45;22.60;99.90
18658;DHT22;9458;50.942;5.074;2023-07-16T04:59:14;23.00;99.90
18658;DHT22;9458;50.942;5.074;2023-07-16T05:01:43;23.10;99.90
18658;DHT22;9458;50.942;5.074;2023-07-16T05:04:13;23.70;99.90
18658;DHT22;9458;50.942;5.074;2023-07-16T05:06:40;24.00;99.90
18658;DHT22;9458;50.942;5.074;2023-07-16T05:09:12;24.40;99.90
18658;DHT22;9458;50.942;5.074;2023-07-16T05:11:42;24.40;99.90
18658;DHT22;9458;50.942;5.074;2023-07-16T05:14:10;24.30;99.90
18658;DHT22;9458;50.942;5.074;2023-07-16T05:16:38;24.40;99.90
18658;DHT22;9458;50.942;5.074;2023-07-16T05:19:05;24.60;99.90
18658;DHT22;9458;50.942;5.074;2023-07-16T05:21:32;24.80;99.90
18658;DHT22;9458;50.942;5.074;2023-07-16T05:24:00;24.40;99.90
18658;DHT22;9458;50.942;5.074;2023-07-16T05:26:31;24.10;99.90
18658;DHT22;9458;50.942;5.074;2023-07-16T05:29:00;24.00;99.90
18658;DHT22;9458;50.942;5.074;2023-07-16T05:31:30;23.90;99.90
18658;DHT22;9458;50.942;5.074;2023-07-16T05:33:58;24.20;99.90
18658;DHT22;9458;50.942;5.074;2023-07-16T05:36:26;24.60;99.90
18658;DHT22;9458;50.942;5.074;2023-07-16T05:38:54;25.40;99.90
18658;DHT22;9458;50.942;5.074;2023-07-16T05:41:21;25.70;99.90
18658;DHT22;9458;50.942;5.074;2023-07-16T05:43:50;25.30;99.90
18658;DHT22;9458;50.942;5.074;2023-07-16T05:46:17;25.50;99.90
18658;DHT22;9458;50.942;5.074;2023-07-16T05:48:48;26.40;99.90
18658;DHT22;9458;50.942;5.074;2023-07-16T05:51:15;25.30;99.90
18658;DHT22;9458;50.942;5.074;2023-07-16T05:53:44;25.50;99.90
18658;DHT22;9458;50.942;5.074;2023-07-16T05:56:13;25.80;99.90
18658;DHT22;9458;50.942;5.074;2023-07-16T05:58:40;26.60;99.90
18658;DHT22;9458;50.942;5.074;2023-07-16T06:01:10;27.10;99.90
18658;DHT22;9458;50.942;5.074;2023-07-16T06:03:40;27.20;99.60
18658;DHT22;9458;50.942;5.074;2023-07-16T06:06:12;27.20;99.90
18658;DHT22;9458;50.942;5.074;2023-07-16T06:08:40;27.90;99.00
18658;DHT22;9458;50.942;5.074;2023-07-16T06:11:08;27.90;98.80
18658;DHT22;9458;50.942;5.074;2023-07-16T06:13:37;28.00;98.70
18658;DHT22;9458;50.942;5.074;2023-07-16T06:16:06;27.80;98.30
18658;DHT22;9458;50.942;5.074;2023-07-16T06:18:35;28.70;98.40
18658;DHT22;9458;50.942;5.074;2023-07-16T06:21:03;28.20;97.80
18658;DHT22;9458;50.942;5.074;2023-07-16T06:23:31;28.70;97.30
18658;DHT22;9458;50.942;5.074;2023-07-16T06:25:59;28.80;96.80
18658;DHT22;9458;50.942;5.074;2023-07-16T06:28:26;28.20;97.50
18658;DHT22;9458;50.942;5.074;2023-07-16T06:30:54;28.30;97.20
18658;DHT22;9458;50.942;5.074;2023-07-16T06:33:21;28.30;97.40
18658;DHT22;9458;50.942;5.074;2023-07-16T06:35:50;28.20;97.30
18658;DHT22;9458;50.942;5.074;2023-07-16T06:38:17;29.30;96.50
18658;DHT22;9458;50.942;5.074;2023-07-16T06:40:45;29.50;95.90
18658;DHT22;9458;50.942;5.074;2023-07-16T06:43:13;30.20;94.90
18658;DHT22;9458;50.942;5.074;2023-07-16T06:45:41;28.40;96.50
18658;DHT22;9458;50.942;5.074;2023-07-16T06:48:08;28.70;96.80
18658;DHT22;9458;50.942;5.074;2023-07-16T06:50:35;29.50;96.30
18658;DHT22;9458;50.942;5.074;2023-07-16T06:53:05;30.30;94.70
18658;DHT22;9458;50.942;5.074;2023-07-16T06:55:32;29.80;94.70
18658;DHT22;9458;50.942;5.074;2023-07-16T06:57:59;29.60;94.20
18658;DHT22;9458;50.942;5.074;2023-07-16T07:00:27;30.00;95.70
18658;DHT22;9458;50.942;5.074;2023-07-16T07:03:05;30.10;94.30
18658;DHT22;9458;50.942;5.074;2023-07-16T07:05:33;30.50;94.40
18658;DHT22;9458;50.942;5.074;2023-07-16T07:08:02;30.80;94.20
18658;DHT22;9458;50.942;5.074;2023-07-16T07:10:31;30.30;93.70
18658;DHT22;9458;50.942;5.074;2023-07-16T07:13:01;30.00;94.30
18658;DHT22;9458;50.942;5.074;2023-07-16T07:15:28;30.20;94.10
18658;DHT22;9458;50.942;5.074;2023-07-16T07:17:56;29.10;94.10
18658;DHT22;9458;50.942;5.074;2023-07-16T07:20:24;29.40;95.20
18658;DHT22;9458;50.942;5.074;2023-07-16T07:22:51;30.70;94.90
18658;DHT22;9458;50.942;5.074;2023-07-16T07:25:19;31.40;93.60
18658;DHT22;9458;50.942;5.074;2023-07-16T07:27:47;31.20;93.20
18658;DHT22;9458;50.942;5.074;2023-07-16T07:30:15;31.50;93.40
18658;DHT22;9458;50.942;5.074;2023-07-16T07:32:42;30.90;93.20
18658;DHT22;9458;50.942;5.074;2023-07-16T07:35:10;32.20;92.80
18658;DHT22;9458;50.942;5.074;2023-07-16T07:37:38;32.10;92.70
18658;DHT22;9458;50.942;5.074;2023-07-16T07:40:05;33.10;91.90
18658;DHT22;9458;50.942;5.074;2023-07-16T07:42:33;32.70;91.30
18658;DHT22;9458;50.942;5.074;2023-07-16T07:45:03;32.10;91.60
18658;DHT22;9458;50.942;5.074;2023-07-16T07:47:31;31.50;92.90
18658;DHT22;9458;50.942;5.074;2023-07-16T07:49:58;32.60;91.60
18658;DHT22;9458;50.942;5.074;2023-07-16T07:52:26;33.20;90.60
18658;DHT22;9458;50.942;5.074;2023-07-16T07:54:53;34.10;90.90
18658;DHT22;9458;50.942;5.074;2023-07-16T07:57:21;33.60;89.80
18658;DHT22;9458;50.942;5.074;2023-07-16T07:59:47;32.80;90.60
18658;DHT22;9458;50.942;5.074;2023-07-16T08:02:19;31.90;91.20
18658;DHT22;9458;50.942;5.074;2023-07-16T08:04:49;32.60;91.30
18658;DHT22;9458;50.942;5.074;2023-07-16T08:07:16;32.70;91.10
18658;DHT22;9458;50.942;5.074;2023-07-16T08:09:43;30.90;91.80
18658;DHT22;9458;50.942;5.074;2023-07-16T08:12:10;31.00;92.30
18658;DHT22;9458;50.942;5.074;2023-07-16T08:14:38;30.70;92.70
18658;DHT22;9458;50.942;5.074;2023-07-16T08:17:07;30.40;92.70
18658;DHT22;9458;50.942;5.074;2023-07-16T08:19:36;30.50;93.00
18658;DHT22;9458;50.942;5.074;2023-07-16T08:22:03;30.70;92.20
18658;DHT22;9458;50.942;5.074;2023-07-16T08:24:30;31.10;92.90
18658;DHT22;9458;50.942;5.074;2023-07-16T08:26:58;31.30;92.40
18658;DHT22;9458;50.942;5.074;2023-07-16T08:29:25;30.60;92.60
18658;DHT22;9458;50.942;5.074;2023-07-16T08:31:52;29.10;93.60
18658;DHT22;9458;50.942;5.074;2023-07-16T08:34:19;29.70;94.20
18658;DHT22;9458;50.942;5.074;2023-07-16T08:36:48;29.40;94.40
18658;DHT22;9458;50.942;5.074;2023-07-16T08:39:17;29.30;95.30
18658;DHT22;9458;50.942;5.074;2023-07-16T08:41:44;28.20;94.90
18658;DHT22;9458;50.942;5.074;2023-07-16T08:44:11;28.40;96.00
18658;DHT22;9458;50.942;5.074;2023-07-16T08:46:39;28.40;97.10
18658;DHT22;9458;50.942;5.074;2023-07-16T08:49:07;28.60;95.40
18658;DHT22;9458;50.942;5.074;2023-07-16T08:51:34;28.90;95.70
18658;DHT22;9458;50.942;5.074;2023-07-16T08:54:04;28.30;95.20
18658;DHT22;9458;50.942;5.074;2023-07-16T08:56:31;28.30;95.80
18658;DHT22;9458;50.942;5.074;2023-07-16T08:58:58;28.50;96.20
18658;DHT22;9458;50.942;5.074;2023-07-16T09:01:25;29.00;95.70
18658;DHT22;9458;50.942;5.074;2023-07-16T09:03:52;28.70;96.50
18658;DHT22;9458;50.942;5.074;2023-07-16T09:06:19;28.60;96.00
18658;DHT22;9458;50.942;5.074;2023-07-16T09:08:47;28.80;94.70
18658;DHT22;9458;50.942;5.074;2023-07-16T09:11:15;28.80;94.90
18658;DHT22;9458;50.942;5.074;2023-07-16T09:13:47;28.40;95.30
18658;DHT22;9458;50.942;5.074;2023-07-16T09:16:14;28.00;96.30
18658;DHT22;9458;50.942;5.074;2023-07-16T09:18:42;28.00;96.20
18658;DHT22;9458;50.942;5.074;2023-07-16T09:21:10;28.50;96.40
18658;DHT22;9458;50.942;5.074;2023-07-16T09:23:37;28.30;95.70
18658;DHT22;9458;50.942;5.074;2023-07-16T09:26:04;28.00;95.40
18658;DHT22;9458;50.942;5.074;2023-07-16T09:28:33;27.20;96.00
18658;DHT22;9458;50.942;5.074;2023-07-16T09:31:04;27.70;95.90
18658;DHT22;9458;50.942;5.074;2023-07-16T09:33:31;27.60;96.10
18658;DHT22;9458;50.942;5.074;2023-07-16T09:35:58;27.70;96.00
18658;DHT22;9458;50.942;5.074;2023-07-16T09:38:26;27.60;95.60
18658;DHT22;9458;50.942;5.074;2023-07-16T09:40:55;27.10;95.50
18658;DHT22;9458;50.942;5.074;2023-07-16T09:43:22;26.80;95.90
18658;DHT22;9458;50.942;5.074;2023-07-16T09:45:51;26.60;96.10
18658;DHT22;9458;50.942;5.074;2023-07-16T09:48:19;26.30;96.30
18658;DHT22;9458;50.942;5.074;2023-07-16T09:50:49;26.30;97.20
18658;DHT22;9458;50.942;5.074;2023-07-16T09:53:18;26.40;97.00
18658;DHT22;9458;50.942;5.074;2023-07-16T09:55:45;26.00;96.90
18658;DHT22;9458;50.942;5.074;2023-07-16T09:58:13;26.10;96.30
18658;DHT22;9458;50.942;5.074;2023-07-16T10:00:40;26.30;96.70
18658;DHT22;9458;50.942;5.074;2023-07-16T10:03:10;26.70;96.60
18658;DHT22;9458;50.942;5.074;2023-07-16T10:05:37;26.00;97.00
18658;DHT22;9458;50.942;5.074;2023-07-16T10:08:14;26.70;97.40
18658;DHT22;9458;50.942;5.074;2023-07-16T10:10:42;26.60;97.20
18658;DHT22;9458;50.942;5.074;2023-07-16T10:13:11;27.10;97.20
18658;DHT22;9458;50.942;5.074;2023-07-16T10:15:38;26.90;97.50
18658;DHT22;9458;50.942;5.074;2023-07-16T10:18:05;27.10;97.70
18658;DHT22;9458;50.942;5.074;2023-07-16T10:20:34;27.30;96.50
18658;DHT22;9458;50.942;5.074;2023-07-16T10:23:11;26.70;96.20
18658;DHT22;9458;50.942;5.074;2023-07-16T10:25:38;26.70;97.80
18658;DHT22;9458;50.942;5.074;2023-07-16T10:28:06;27.10;96.20
18658;DHT22;9458;50.942;5.074;2023-07-16T10:30:33;27.10;96.30
18658;DHT22;9458;50.942;5.074;2023-07-16T10:33:02;27.00;96.50
18658;DHT22;9458;50.942;5.074;2023-07-16T10:35:35;26.60;96.50
18658;DHT22;9458;50.942;5.074;2023-07-16T10:38:07;26.30;96.90
18658;DHT22;9458;50.942;5.074;2023-07-16T10:40:38;26.30;97.40
18658;DHT22;9458;50.942;5.074;2023-07-16T10:43:06;26.00;97.00
18658;DHT22;9458;50.942;5.074;2023-07-16T10:45:33;26.30;98.10
18658;DHT22;9458;50.942;5.074;2023-07-16T10:48:00;26.00;97.10
18658;DHT22;9458;50.942;5.074;2023-07-16T10:50:28;25.20;97.90
18658;DHT22;9458;50.942;5.074;2023-07-16T10:52:57;25.20;98.50
18658;DHT22;9458;50.942;5.074;2023-07-16T10:55:25;25.60;97.80
18658;DHT22;9458;50.942;5.074;2023-07-16T10:57:53;25.60;97.10
18658;DHT22;9458;50.942;5.074;2023-07-16T11:00:21;26.20;98.70
18658;DHT22;9458;50.942;5.074;2023-07-16T11:02:50;26.50;97.60
18658;DHT22;9458;50.942;5.074;2023-07-16T11:05:17;26.30;96.90
18658;DHT22;9458;50.942;5.074;2023-07-16T11:07:45;26.40;97.70
18658;DHT22;9458;50.942;5.074;2023-07-16T11:10:16;26.20;97.80
18658;DHT22;9458;50.942;5.074;2023-07-16T11:12:43;25.70;97.80
18658;DHT22;9458;50.942;5.074;2023-07-16T11:15:10;26.00;98.00
18658;DHT22;9458;50.942;5.074;2023-07-16T11:17:37;26.10;97.50
18658;DHT22;9458;50.942;5.074;2023-07-16T11:20:06;26.40;98.60
18658;DHT22;9458;50.942;5.074;2023-07-16T11:22:36;26.70;98.30
18658;DHT22;9458;50.942;5.074;2023-07-16T11:25:10;26.10;97.90
18658;DHT22;9458;50.942;5.074;2023-07-16T11:27:41;25.60;97.20
18658;DHT22;9458;50.942;5.074;2023-07-16T11:30:09;25.90;97.60
18658;DHT22;9458;50.942;5.074;2023-07-16T11:32:37;25.50;97.20
18658;DHT22;9458;50.942;5.074;2023-07-16T11:35:06;25.40;97.70
18658;DHT22;9458;50.942;5.074;2023-07-16T11:37:34;25.40;98.70
18658;DHT22;9458;50.942;5.074;2023-07-16T11:40:03;25.40;98.70
18658;DHT22;9458;50.942;5.074;2023-07-16T11:42:31;25.70;98.50
18658;DHT22;9458;50.942;5.074;2023-07-16T11:45:00;26.00;98.30
18658;DHT22;9458;50.942;5.074;2023-07-16T11:47:27;26.10;98.20
18658;DHT22;9458;50.942;5.074;2023-07-16T11:49:55;25.60;97.80
18658;DHT22;9458;50.942;5.074;2023-07-16T11:52:23;25.40;98.40
18658;DHT22;9458;50.942;5.074;2023-07-16T11:54:51;25.40;98.60
18658;DHT22;9458;50.942;5.074;2023-07-16T11:57:18;25.80;98.80
18658;DHT22;9458;50.942;5.074;2023-07-16T11:59:45;25.60;97.90
18658;DHT22;9458;50.942;5.074;2023-07-16T12:02:15;25.40;98.00
18658;DHT22;9458;50.942;5.074;2023-07-16T12:04:41;25.60;98.20
18658;DHT22;9458;50.942;5.074;2023-07-16T12:07:09;25.90;98.50
18658;DHT22;9458;50.942;5.074;2023-07-16T12:09:36;25.90;97.50
18658;DHT22;9458;50.942;5.074;2023-07-16T12:12:04;25.60;98.60
18658;DHT22;9458;50.942;5.074;2023-07-16T12:14:31;25.50;98.80
18658;DHT22;9458;50.942;5.074;2023-07-16T12:16:58;26.00;99.10
18658;DHT22;9458;50.942;5.074;2023-07-16T12:19:26;26.40;98.30
18658;DHT22;9458;50.942;5.074;2023-07-16T12:21:53;26.30;96.90
18658;DHT22;9458;50.942;5.074;2023-07-16T12:24:22;25.80;97.40
18658;DHT22;9458;50.942;5.074;2023-07-16T12:26:49;25.90;97.80
18658;DHT22;9458;50.942;5.074;2023-07-16T12:29:16;25.70;97.40
18658;DHT22;9458;50.942;5.074;2023-07-16T12:31:44;25.80;98.20
18658;DHT22;9458;50.942;5.074;2023-07-16T12:34:11;25.90;98.10
18658;DHT22;9458;50.942;5.074;2023-07-16T12:36:40;25.70;97.90
18658;DHT22;9458;50.942;5.074;2023-07-16T12:39:07;25.80;98.50
18658;DHT22;9458;50.942;5.074;2023-07-16T12:41:34;25.70;98.10
18658;DHT22;9458;50.942;5.074;2023-07-16T12:44:01;25.60;97.50
18658;DHT22;9458;50.942;5.074;2023-07-16T12:46:28;25.70;98.00
18658;DHT22;9458;50.942;5.074;2023-07-16T12:48:55;25.50;97.70
18658;DHT22;9458;50.942;5.074;2023-07-16T12:51:22;25.70;98.90
18658;DHT22;9458;50.942;5.074;2023-07-16T12:53:51;26.00;98.60
18658;DHT22;9458;50.942;5.074;2023-07-16T12:56:18;26.00;97.60
18658;DHT22;9458;50.942;5.074;2023-07-16T12:58:46;25.80;97.50
18658;DHT22;9458;50.942;5.074;2023-07-16T13:01:13;25.80;97.70
18658;DHT22;9458;50.942;5.074;2023-07-16T13:03:42;25.50;97.80
18658;DHT22;9458;50.942;5.074;2023-07-16T13:06:09;25.80;99.10
18658;DHT22;9458;50.942;5.074;2023-07-16T13:08:35;26.00;98.10
18658;DHT22;9458;50.942;5.074;2023-07-16T13:11:04;26.00;98.10
18658;DHT22;9458;50.942;5.074;2023-07-16T13:13:31;25.80;97.70
18658;DHT22;9458;50.942;5.074;2023-07-16T13:15:58;25.90;98.20
18658;DHT22;9458;50.942;5.074;2023-07-16T13:18:26;26.20;97.60
18658;DHT22;9458;50.942;5.074;2023-07-16T13:20:53;26.40;97.70
18658;DHT22;9458;50.942;5.074;2023-07-16T13:23:20;26.60;98.20
18658;DHT22;9458;50.942;5.074;2023-07-16T13:25:48;26.70;98.20
18658;DHT22;9458;50.942;5.074;2023-07-16T13:28:19;26.60;97.10
18658;DHT22;9458;50.942;5.074;2023-07-16T13:30:46;26.20;96.80
18658;DHT22;9458;50.942;5.074;2023-07-16T13:33:14;26.00;96.70
18658;DHT22;9458;50.942;5.074;2023-07-16T13:35:42;25.80;97.80
18658;DHT22;9458;50.942;5.074;2023-07-16T13:38:09;26.00;96.90
18658;DHT22;9458;50.942;5.074;2023-07-16T13:40:36;26.10;97.10
18658;DHT22;9458;50.942;5.074;2023-07-16T13:43:03;26.10;96.10
18658;DHT22;9458;50.942;5.074;2023-07-16T13:45:33;25.60;96.30
18658;DHT22;9458;50.942;5.074;2023-07-16T13:48:00;25.80;97.60
18658;DHT22;9458;50.942;5.074;2023-07-16T13:50:27;26.00;97.30
18658;DHT22;9458;50.942;5.074;2023-07-16T13:52:54;26.00;97.80
18658;DHT22;9458;50.942;5.074;2023-07-16T13:55:21;26.10;97.10
18658;DHT22;9458;50.942;5.074;2023-07-16T13:57:48;26.20;96.60
18658;DHT22;9458;50.942;5.074;2023-07-16T14:00:15;26.10;97.30
18658;DHT22;9458;50.942;5.074;2023-07-16T14:02:55;26.00;97.10
18658;DHT22;9458;50.942;5.074;2023-07-16T14:05:23;26.10;96.90
18658;DHT22;9458;50.942;5.074;2023-07-16T14:07:50;26.20;97.00
18658;DHT22;9458;50.942;5.074;2023-07-16T14:10:19;26.20;96.30
18658;DHT22;9458;50.942;5.074;2023-07-16T14:12:46;26.20;97.30
18658;DHT22;9458;50.942;5.074;2023-07-16T14:15:13;26.40;96.20
18658;DHT22;9458;50.942;5.074;2023-07-16T14:17:41;26.30;96.90
18658;DHT22;9458;50.942;5.074;2023-07-16T14:20:11;26.40;97.00
18658;DHT22;9458;50.942;5.074;2023-07-16T14:22:38;26.30;96.10
18658;DHT22;9458;50.942;5.074;2023-07-16T14:25:05;26.20;96.00
18658;DHT22;9458;50.942;5.074;2023-07-16T14:27:32;26.10;96.00
18658;DHT22;9458;50.942;5.074;2023-07-16T14:30:00;26.00;96.20
18658;DHT22;9458;50.942;5.074;2023-07-16T14:32:27;26.00;96.60
18658;DHT22;9458;50.942;5.074;2023-07-16T14:34:54;26.00;96.10
18658;DHT22;9458;50.942;5.074;2023-07-16T14:37:23;26.10;96.90
18658;DHT22;9458;50.942;5.074;2023-07-16T14:39:50;26.30;97.00
18658;DHT22;9458;50.942;5.074;2023-07-16T14:42:18;26.20;95.50
18658;DHT22;9458;50.942;5.074;2023-07-16T14:44:45;26.00;95.40
18658;DHT22;9458;50.942;5.074;2023-07-16T14:47:12;25.60;96.10
18658;DHT22;9458;50.942;5.074;2023-07-16T14:49:38;25.40;95.80
18658;DHT22;9458;50.942;5.074;2023-07-16T14:52:06;25.40;96.20
18658;DHT22;9458;50.942;5.074;2023-07-16T14:54:34;25.50;96.60
18658;DHT22;9458;50.942;5.074;2023-07-16T14:57:01;26.00;97.30
18658;DHT22;9458;50.942;5.074;2023-07-16T14:59:29;26.30;96.80
18658;DHT22;9458;50.942;5.074;2023-07-16T15:01:56;26.40;96.90
18658;DHT22;9458;50.942;5.074;2023-07-16T15:04:24;26.20;96.60
18658;DHT22;9458;50.942;5.074;2023-07-16T15:06:50;25.80;97.80
18658;DHT22;9458;50.942;5.074;2023-07-16T15:09:17;25.70;98.70
18658;DHT22;9458;50.942;5.074;2023-07-16T15:11:46;25.90;98.20
18658;DHT22;9458;50.942;5.074;2023-07-16T15:14:13;26.00;98.30
18658;DHT22;9458;50.942;5.074;2023-07-16T15:16:40;26.30;98.70
18658;DHT22;9458;50.942;5.074;2023-07-16T15:19:07;26.30;98.50
18658;DHT22;9458;50.942;5.074;2023-07-16T15:21:35;26.30;98.80
18658;DHT22;9458;50.942;5.074;2023-07-16T15:24:03;26.10;98.20
18658;DHT22;9458;50.942;5.074;2023-07-16T15:26:31;26.20;98.80
18658;DHT22;9458;50.942;5.074;2023-07-16T15:28:59;26.10;98.70
18658;DHT22;9458;50.942;5.074;2023-07-16T15:31:28;26.20;99.20
18658;DHT22;9458;50.942;5.074;2023-07-16T15:33:55;26.10;98.60
18658;DHT22;9458;50.942;5.074;2023-07-16T15:36:22;26.10;98.90
18658;DHT22;9458;50.942;5.074;2023-07-16T15:38:49;25.90;99.10
18658;DHT22;9458;50.942;5.074;2023-07-16T15:41:16;26.00;99.80
18658;DHT22;9458;50.942;5.074;2023-07-16T15:43:45;26.20;99.30
18658;DHT22;9458;50.942;5.074;2023-07-16T15:46:16;26.30;99.30
18658;DHT22;9458;50.942;5.074;2023-07-16T15:48:43;26.30;99.00
18658;DHT22;9458;50.942;5.074;2023-07-16T15:51:11;26.30;98.60
18658;DHT22;9458;50.942;5.074;2023-07-16T15:53:38;26.20;97.50
18658;DHT22;9458;50.942;5.074;2023-07-16T15:56:05;26.10;97.80